This is the latest recevied weather packets stored in our database for station/object DH0GMA. If no packets are shown the sender has not sent any weather packets the latest 10 day(s).
| Time | Temp. | Humidity | Pressure | Rain* | Wind** | Luminosity | Snow |
|---|---|---|---|---|---|---|---|
| 1777612956 | 5° C | 63% | 1026.9 hPa | 0 mm | - | - | - |
| 1777612355 | 4.44° C | 65% | 1026.9 hPa | 0 mm | - | - | - |
| 1777611755 | 3.33° C | 69% | 1026.8 hPa | 0 mm | - | - | - |
| 1777611155 | 2.22° C | 73% | 1026.8 hPa | 0 mm | - | - | - |
| 1777610555 | 1.67° C | 72% | 1026.7 hPa | 0 mm | - | - | - |
| 1777609955 | 1.67° C | 72% | 1026.5 hPa | 0 mm | - | - | - |
| 1777609355 | 1.67° C | 71% | 1026.5 hPa | 0 mm | - | - | - |
| 1777608755 | 2.22° C | 70% | 1026.4 hPa | 0 mm | - | - | - |
| 1777608156 | 2.22° C | 69% | 1026.4 hPa | 0 mm | - | - | - |
| 1777607556 | 2.78° C | 68% | 1026.3 hPa | 0 mm | - | - | - |
| 1777606956 | 2.78° C | 68% | 1026.2 hPa | 0 mm | - | - | - |
| 1777606356 | 3.33° C | 67% | 1026.1 hPa | 0 mm | - | - | - |
| 1777605756 | 2.78° C | 68% | 1026.3 hPa | 0 mm | - | - | - |
| 1777605156 | 2.78° C | 68% | 1026.3 hPa | 0 mm | - | - | - |
| 1777604556 | 2.78° C | 69% | 1026.4 hPa | 0 mm | - | - | - |
| 1777603955 | 2.22° C | 69% | 1026.4 hPa | 0 mm | - | - | - |
| 1777603355 | 2.78° C | 68% | 1026.3 hPa | 0 mm | - | - | - |
| 1777602755 | 2.78° C | 67% | 1026.2 hPa | 0 mm | - | - | - |
| 1777602155 | 3.33° C | 66% | 1026.2 hPa | 0 mm | - | - | - |
| 1777581755 | 9.44° C | 42% | 1026.2 hPa | 0 mm | - | - | - |
| 1777580555 | 9.44° C | 42% | 1026.2 hPa | 0 mm | - | - | - |
| 1777576956 | 10.56° C | 38% | 1025.6 hPa | 0 mm | - | - | - |
| 1777576356 | 11.11° C | 38% | 1025.6 hPa | 0 mm | - | - | - |
| 1777572155 | 13.33° C | 31% | 1025 hPa | 0 mm | - | - | - |
| 1777566156 | 15.56° C | 26% | 1024.7 hPa | 0 mm | - | - | - |
* Rain latest hour (hover to see other rain measurements)
** Current wind speed in m/s (hover to see current wind gust speed)